Time;durP1;ratioP1;P1;durP2;ratioP2;P2;SDS_P1;SDS_P2;PMS_P1;PMS_P2;Temp;Humidity;BMP_temperature;BMP_pressure;BME280_temperature;BME280_humidity;BME280_pressure;Samples;Min_cycle;Max_cycle;Signal;HPM_P1;HPM_P2
2021/12/16 00:02:48;;;;;;;16.42;7.70;;;8.40;99.90;;;;;;6306799;22;20459;-79
2021/12/16 00:08:33;;;;;;;17.92;8.30;;;8.30;99.90;;;;;;6306734;22;20073;-79
2021/12/16 00:32:58;;;;;;;16.73;7.65;;;8.30;99.90;;;;;;6306525;22;20524;-79
2021/12/16 00:35:47;;;;;;;17.92;8.85;;;8.30;99.90;;;;;;6306428;22;20034;-79
2021/12/16 00:38:31;;;;;;;19.38;8.88;;;8.30;99.90;;;;;;6306573;22;20455;-79
2021/12/16 00:41:16;;;;;;;18.67;8.55;;;8.30;99.90;;;;;;6305805;22;20014;-79
2021/12/16 00:44:09;;;;;;;21.55;8.02;;;8.30;99.90;;;;;;6306989;22;20091;-79
2021/12/16 00:49:47;;;;;;;17.23;8.30;;;8.40;99.90;;;;;;6305183;22;20023;-79
2021/12/16 00:55:51;;;;;;;24.75;9.57;;;8.30;99.90;;;;;;6306233;22;20134;-80
2021/12/16 00:58:45;;;;;;;18.35;9.10;;;8.30;99.90;;;;;;6305319;22;20022;-80
2021/12/16 01:35:20;;;;;;;;;;;8.30;99.90;;;;;;6307111;22;20483;-80
2021/12/16 01:55:52;;;;;;;19.90;10.65;;;8.10;99.90;;;;;;6306561;22;20019;-80
2021/12/16 01:58:36;;;;;;;22.33;9.75;;;8.40;99.90;;;;;;6305268;22;20014;-81
2021/12/16 02:01:29;;;;;;;21.33;10.35;;;8.20;99.90;;;;;;6306664;22;20014;-80
2021/12/16 02:04:29;;;;;;;27.13;11.07;;;8.20;99.90;;;;;;6306269;22;20390;-80
2021/12/16 02:07:31;;;;;;;23.77;11.68;;;8.20;99.90;;;;;;6306383;22;20018;-80
2021/12/16 02:10:18;;;;;;;22.30;10.10;;;8.20;99.90;;;;;;6306693;22;20141;-80
2021/12/16 02:28:36;;;;;;;21.63;11.23;;;8.20;99.90;;;;;;6308159;22;20027;-80
2021/12/16 02:31:34;;;;;;;21.27;11.45;;;8.20;99.90;;;;;;6306905;22;20072;-80
2021/12/16 02:37:15;;;;;;;21.98;11.07;;;8.20;99.90;;;;;;6308342;22;20026;-80
2021/12/16 02:40:01;;;;;;;20.45;11.43;;;8.20;99.90;;;;;;6306557;22;20073;-81
2021/12/16 02:43:00;;;;;;;17.73;9.35;;;8.20;99.90;;;;;;6306363;22;20057;-81
2021/12/16 02:48:48;;;;;;;27.13;11.40;;;8.20;99.90;;;;;;6307555;22;20073;-81
2021/12/16 02:51:31;;;;;;;;;;;8.20;99.90;;;;;;6308529;22;20014;-80
2021/12/16 02:54:16;;;;;;;23.77;11.30;;;8.10;99.90;;;;;;6308214;22;19914;-80
2021/12/16 02:57:00;;;;;;;27.15;11.63;;;8.10;99.90;;;;;;6307451;22;20040;-80
2021/12/16 02:59:47;;;;;;;22.40;11.77;;;8.20;99.90;;;;;;6307524;22;20014;-81
2021/12/16 03:02:31;;;;;;;19.38;11.25;;;8.10;99.90;;;;;;6308033;22;20056;-80
2021/12/16 03:05:19;;;;;;;17.40;10.25;;;8.20;99.90;;;;;;6308136;22;20333;-80
2021/12/16 03:08:05;;;;;;;25.80;11.07;;;8.40;99.90;;;;;;6307260;22;20046;-80
2021/12/16 03:13:44;;;;;;;;;;;8.10;99.90;;;;;;6308304;22;20387;-80
2021/12/16 03:31:55;;;;;;;30.85;12.52;;;8.10;99.90;;;;;;6307308;22;20075;-80
2021/12/16 03:34:46;;;;;;;23.95;11.95;;;8.10;99.90;;;;;;6287997;22;20066;-80
2021/12/16 03:37:31;;;;;;;21.45;12.23;;;8.00;99.90;;;;;;6307723;22;20018;-80
2021/12/16 03:40:16;;;;;;;26.20;13.50;;;8.00;99.90;;;;;;6307798;22;20013;-80
2021/12/16 03:43:15;;;;;;;23.35;12.90;;;8.00;99.90;;;;;;6305718;22;20106;-80
2021/12/16 03:49:09;;;;;;;26.23;12.60;;;7.80;99.90;;;;;;6306587;22;20023;-81
2021/12/16 03:51:58;;;;;;;24.45;11.73;;;7.90;99.90;;;;;;6305662;22;20086;-81
2021/12/16 03:54:49;;;;;;;26.25;12.85;;;7.70;99.90;;;;;;6307514;22;20150;-80
2021/12/16 03:57:35;;;;;;;27.92;13.35;;;7.60;99.90;;;;;;6307412;22;20421;-80
2021/12/16 04:00:28;;;;;;;29.77;14.88;;;7.60;99.90;;;;;;6307323;22;20083;-81
2021/12/16 04:03:13;;;;;;;34.15;14.85;;;7.60;99.90;;;;;;6306799;22;20497;-81
2021/12/16 04:05:58;;;;;;;27.88;14.63;;;7.50;99.90;;;;;;6305702;22;20514;-80
2021/12/16 04:08:42;;;;;;;28.83;13.88;;;7.50;99.90;;;;;;6307272;22;20021;-80
2021/12/16 04:11:31;;;;;;;;;;;7.50;99.90;;;;;;6307789;22;20337;-80
2021/12/16 04:14:16;;;;;;;28.27;13.70;;;;;;;;;;6306779;22;20359;-80
2021/12/16 04:17:03;;;;;;;28.13;13.95;;;;;;;;;;6305400;22;20021;-81
2021/12/16 04:19:48;;;;;;;30.05;13.05;;;7.20;99.90;;;;;;6307304;22;20057;-80
2021/12/16 04:22:38;;;;;;;29.63;14.60;;;8.30;99.90;;;;;;6307118;22;20062;-80
2021/12/16 04:25:30;;;;;;;34.35;14.85;;;7.10;99.90;;;;;;6307119;22;20341;-80
2021/12/16 04:28:19;;;;;;;32.22;14.13;;;7.10;99.90;;;;;;6306383;22;20014;-81
2021/12/16 04:31:04;;;;;;;37.15;14.68;;;;;;;;;;6306511;22;20503;-81
2021/12/16 04:33:50;;;;;;;27.75;14.27;;;;;;;;;;6307167;22;20010;-80
2021/12/16 04:36:35;;;;;;;31.30;15.63;;;7.10;99.90;;;;;;6305724;22;20014;-80
2021/12/16 04:39:24;;;;;;;27.92;13.77;;;7.20;99.90;;;;;;6305809;22;20023;-80
2021/12/16 04:42:10;;;;;;;38.30;15.30;;;7.00;99.90;;;;;;6305221;22;20010;-80
2021/12/16 04:44:54;;;;;;;26.88;13.38;;;;;;;;;;6306636;22;20026;-80
2021/12/16 04:47:40;;;;;;;30.48;14.55;;;7.20;99.90;;;;;;6305588;22;20041;-80
2021/12/16 04:50:24;;;;;;;32.47;15.32;;;6.90;99.90;;;;;;6305444;22;20064;-80
2021/12/16 04:53:09;;;;;;;29.98;15.93;;;7.30;99.90;;;;;;6306364;22;20102;-80
2021/12/16 04:55:53;;;;;;;38.70;15.00;;;6.90;99.90;;;;;;6305601;22;20099;-80
2021/12/16 04:58:40;;;;;;;32.53;15.73;;;6.90;99.90;;;;;;6305611;22;20061;-80
2021/12/16 05:01:25;;;;;;;35.03;16.13;;;6.90;99.90;;;;;;6305572;22;20087;-80
2021/12/16 05:04:10;;;;;;;37.20;17.23;;;6.90;99.90;;;;;;6306111;22;20033;-80
2021/12/16 05:06:55;;;;;;;41.55;16.67;;;7.50;99.90;;;;;;6306708;22;20034;-80
2021/12/16 05:12:26;;;;;;;35.70;16.02;;;6.90;99.90;;;;;;6306519;22;20022;-80
2021/12/16 05:15:14;;;;;;;38.78;17.55;;;7.00;99.90;;;;;;6306295;22;20441;-80
2021/12/16 05:18:02;;;;;;;40.00;18.10;;;6.80;99.90;;;;;;6306577;22;20050;-81
2021/12/16 05:20:46;;;;;;;40.28;17.38;;;6.80;99.90;;;;;;6306884;22;20344;-80
2021/12/16 05:26:34;;;;;;;36.80;18.17;;;6.80;99.90;;;;;;6306463;22;20014;-80
2021/12/16 05:29:19;;;;;;;37.30;18.48;;;7.30;99.90;;;;;;6283034;22;20342;-80
2021/12/16 05:32:04;;;;;;;39.47;16.33;;;6.80;99.90;;;;;;6304867;22;20075;-81
2021/12/16 05:34:49;;;;;;;43.95;19.17;;;6.80;99.90;;;;;;6305527;22;20022;-80
2021/12/16 05:37:33;;;;;;;43.25;17.98;;;7.20;99.90;;;;;;6306508;22;20018;-80
2021/12/16 05:40:19;;;;;;;;;;;6.90;99.90;;;;;;6306508;22;20478;-81
2021/12/16 05:43:08;;;;;;;40.20;17.58;;;7.40;99.90;;;;;;6306276;22;19910;-81
2021/12/16 05:45:55;;;;;;;45.63;18.63;;;7.60;99.90;;;;;;6306693;22;20014;-80
2021/12/16 05:48:41;;;;;;;40.17;18.75;;;7.30;99.90;;;;;;6306439;22;20088;-80
2021/12/16 05:51:32;;;;;;;41.83;19.83;;;7.00;99.90;;;;;;6305937;22;20087;-80
2021/12/16 05:54:17;;;;;;;38.05;19.77;;;7.10;99.90;;;;;;6306151;22;20341;-80
2021/12/16 05:57:02;;;;;;;38.83;19.40;;;7.20;99.90;;;;;;6308676;22;20101;-80
2021/12/16 05:59:47;;;;;;;40.00;19.02;;;7.00;99.90;;;;;;6306043;22;20460;-80
2021/12/16 06:02:32;;;;;;;42.15;19.05;;;7.20;99.90;;;;;;6307116;22;20010;-80
2021/12/16 06:05:17;;;;;;;40.92;18.55;;;7.10;99.90;;;;;;6308139;22;20022;-80
2021/12/16 06:08:02;;;;;;;35.08;17.65;;;7.00;99.90;;;;;;6307207;22;20341;-80
2021/12/16 06:14:18;;;;;;;40.42;19.38;;;7.40;99.90;;;;;;6308028;22;20018;-80
2021/12/16 06:29:05;;;;;;;46.08;19.38;;;7.10;99.90;;;;;;6306984;22;20472;-80
2021/12/16 06:31:50;;;;;;;45.05;19.60;;;7.70;99.90;;;;;;6306279;22;20017;-80
2021/12/16 06:34:35;;;;;;;49.55;21.27;;;7.30;99.90;;;;;;6307934;22;20010;-81
2021/12/16 06:37:19;;;;;;;39.75;19.08;;;7.60;99.90;;;;;;6306216;22;20017;-81
2021/12/16 06:40:06;;;;;;;43.33;19.23;;;7.30;99.90;;;;;;6308037;22;20017;-80
2021/12/16 06:42:54;;;;;;;41.90;19.63;;;7.30;99.90;;;;;;6307803;22;20013;-80
2021/12/16 06:45:41;;;;;;;39.67;19.05;;;7.30;99.90;;;;;;6308012;22;20060;-80
2021/12/16 06:48:30;;;;;;;50.47;20.15;;;7.40;99.90;;;;;;6306024;22;20023;-80
2021/12/16 06:51:22;;;;;;;44.88;19.50;;;7.30;99.90;;;;;;6307336;22;20330;-81
2021/12/16 06:54:11;;;;;;;39.75;18.55;;;7.30;99.90;;;;;;6306685;22;20015;-80
2021/12/16 06:57:11;;;;;;;46.50;19.90;;;7.20;99.90;;;;;;6306601;22;20072;-80
2021/12/16 07:00:06;;;;;;;34.80;17.75;;;7.30;99.90;;;;;;6307784;22;20065;-80
2021/12/16 07:03:00;;;;;;;48.28;19.75;;;7.20;99.90;;;;;;6306715;22;20041;-80
2021/12/16 07:05:47;;;;;;;45.92;20.52;;;7.20;99.90;;;;;;6286361;22;20065;-80
2021/12/16 07:08:32;;;;;;;38.22;19.05;;;7.10;99.90;;;;;;6306811;22;20094;-80
2021/12/16 07:11:16;;;;;;;39.70;19.20;;;7.10;99.90;;;;;;6305939;22;20014;-80
2021/12/16 07:14:04;;;;;;;46.67;20.02;;;7.10;99.90;;;;;;6306389;22;20030;-80
2021/12/16 07:16:52;;;;;;;45.45;19.95;;;7.00;99.90;;;;;;6306490;22;20019;-80
2021/12/16 07:19:37;;;;;;;54.58;21.25;;;7.00;99.90;;;;;;6306636;22;20083;-81
2021/12/16 07:22:22;;;;;;;47.67;21.80;;;7.00;99.90;;;;;;6302463;22;20445;-80
2021/12/16 07:25:07;;;;;;;46.90;20.50;;;6.90;99.90;;;;;;6279740;22;20068;-81
2021/12/16 07:27:52;;;;;;;36.33;18.00;;;6.90;99.90;;;;;;6301439;22;20066;-81
2021/12/16 07:30:40;;;;;;;47.47;19.73;;;6.90;99.90;;;;;;6302357;22;20099;-81
2021/12/16 07:33:24;;;;;;;53.00;19.83;;;6.90;99.90;;;;;;6302398;22;20010;-81
2021/12/16 07:36:09;;;;;;;50.10;20.17;;;6.80;99.90;;;;;;6279787;22;20067;-81
2021/12/16 07:38:54;;;;;;;53.03;20.80;;;6.90;99.90;;;;;;6301682;22;20152;-80
2021/12/16 07:41:41;;;;;;;58.97;21.75;;;6.70;99.90;;;;;;6301064;22;20076;-81
2021/12/16 07:44:25;;;;;;;53.33;20.35;;;6.70;99.90;;;;;;6302146;22;20034;-82
2021/12/16 07:47:10;;;;;;;;;;;6.70;99.90;;;;;;6302225;22;20096;-80
2021/12/16 07:49:55;;;;;;;44.88;19.60;;;6.60;99.90;;;;;;6301970;22;19955;-80
2021/12/16 07:52:40;;;;;;;49.33;21.17;;;6.80;99.90;;;;;;6278930;22;20069;-80
2021/12/16 07:55:25;;;;;;;59.28;23.10;;;6.60;99.90;;;;;;6300863;22;20166;-80
2021/12/16 07:58:10;;;;;;;58.00;23.15;;;6.60;99.90;;;;;;6301319;22;20053;-80
2021/12/16 08:00:55;;;;;;;64.22;23.55;;;6.60;99.90;;;;;;6301493;22;20018;-80
2021/12/16 08:03:41;;;;;;;64.80;24.17;;;6.60;99.90;;;;;;6302004;22;20091;-80
2021/12/16 08:06:28;;;;;;;75.00;25.73;;;6.90;99.90;;;;;;6302203;22;20026;-80
2021/12/16 08:09:13;;;;;;;70.13;25.00;;;6.60;99.90;;;;;;6302544;22;20065;-81
2021/12/16 08:11:57;;;;;;;65.43;24.35;;;7.40;99.90;;;;;;6302554;22;20009;-80
2021/12/16 08:14:43;;;;;;;64.80;23.98;;;6.70;99.90;;;;;;6302195;22;20014;-80
2021/12/16 08:17:28;;;;;;;73.57;25.92;;;;;;;;;;6301907;22;20021;-80
2021/12/16 08:20:16;;;;;;;80.68;25.70;;;6.80;99.90;;;;;;6302354;22;20072;-80
2021/12/16 08:23:01;;;;;;;60.20;23.02;;;;;;;;;;6302370;22;20520;-80
2021/12/16 08:25:45;;;;;;;61.63;22.08;;;6.80;99.90;;;;;;6302526;22;20416;-81
2021/12/16 08:28:30;;;;;;;63.00;24.35;;;;;;;;;;6302060;22;20072;-80
2021/12/16 08:31:14;;;;;;;59.00;22.92;;;6.80;99.90;;;;;;6302290;22;20014;-80
2021/12/16 08:33:59;;;;;;;69.35;24.80;;;6.80;99.90;;;;;;6302479;22;20087;-80
2021/12/16 08:36:44;;;;;;;83.90;25.73;;;6.90;99.90;;;;;;6278871;22;20014;-80
2021/12/16 08:39:29;;;;;;;76.03;26.83;;;6.90;99.90;;;;;;6301946;22;20623;-81
2021/12/16 08:42:13;;;;;;;71.53;24.67;;;7.20;99.90;;;;;;6307118;22;20333;-80
2021/12/16 08:44:58;;;;;;;63.85;23.98;;;7.00;99.90;;;;;;6307181;22;20408;-81
2021/12/16 08:47:43;;;;;;;64.05;25.00;;;7.60;99.90;;;;;;6306325;22;20018;-81
2021/12/16 08:50:32;;;;;;;68.80;25.38;;;7.20;99.90;;;;;;6306435;22;20061;-80
2021/12/16 08:53:19;;;;;;;71.93;25.52;;;7.20;99.90;;;;;;6305670;22;20076;-80
2021/12/16 08:56:05;;;;;;;66.15;24.23;;;7.30;99.90;;;;;;6306651;22;20014;-81
2021/12/16 08:58:50;;;;;;;77.05;25.38;;;7.30;99.90;;;;;;6305324;22;20022;-80
2021/12/16 09:01:46;;;;;;;69.20;24.15;;;7.10;99.90;;;;;;6304701;22;20383;-80
2021/12/16 09:04:30;;;;;;;76.60;25.60;;;;;;;;;;6305850;22;20506;-80
2021/12/16 09:07:15;;;;;;;71.05;24.27;;;;;;;;;;6306404;22;20468;-80
2021/12/16 09:10:00;;;;;;;69.50;25.45;;;;;;;;;;6306681;22;20034;-80
2021/12/16 09:12:52;;;;;;;81.18;24.77;;;;;;;;;;6304828;22;20467;-81
2021/12/16 09:15:48;;;;;;;88.15;25.35;;;7.40;99.90;;;;;;6306068;22;20013;-81
2021/12/16 09:18:37;;;;;;;91.63;26.13;;;7.60;99.90;;;;;;6305999;22;20092;-81
2021/12/16 09:21:29;;;;;;;86.78;28.00;;;7.70;99.90;;;;;;6305169;22;20451;-81
2021/12/16 09:24:14;;;;;;;73.15;26.63;;;8.20;99.90;;;;;;6306577;22;20056;-81
2021/12/16 09:26:59;;;;;;;91.93;25.25;;;7.60;99.90;;;;;;6282920;22;20026;-81
2021/12/16 09:29:44;;;;;;;85.53;26.58;;;7.70;99.90;;;;;;6303594;22;20454;-80
2021/12/16 09:32:30;;;;;;;82.63;26.58;;;7.70;99.90;;;;;;6306732;22;20456;-81
2021/12/16 09:35:15;;;;;;;83.72;24.55;;;7.80;99.90;;;;;;6307249;22;20014;-81
2021/12/16 09:38:04;;;;;;;93.60;27.10;;;8.30;99.90;;;;;;6308484;22;20063;-80
2021/12/16 09:40:53;;;;;;;98.68;27.45;;;7.80;99.90;;;;;;6307843;22;20084;-81
2021/12/16 09:43:45;;;;;;;106.82;28.13;;;7.80;99.90;;;;;;6307769;22;20088;-81
2021/12/16 09:46:31;;;;;;;102.15;27.77;;;7.80;99.90;;;;;;6307653;22;20018;-81
2021/12/16 09:49:17;;;;;;;94.43;26.50;;;7.80;99.90;;;;;;6307585;22;20144;-80
2021/12/16 09:52:05;;;;;;;85.22;25.70;;;7.60;99.90;;;;;;6308123;22;20068;-81
2021/12/16 09:54:50;;;;;;;103.50;25.73;;;;;;;;;;6307231;22;20619;-81
2021/12/16 09:57:35;;;;;;;140.23;30.65;;;;;;;;;;6284566;22;20019;-81
2021/12/16 10:00:23;;;;;;;141.38;30.15;;;7.90;99.90;;;;;;6308083;22;20015;-81
2021/12/16 10:03:07;;;;;;;157.55;31.35;;;;;;;;;;6307801;22;20014;-81
2021/12/16 10:05:52;;;;;;;170.50;32.60;;;;;;;;;;6306537;22;20053;-81
2021/12/16 10:08:37;;;;;;;160.48;32.13;;;;;;;;;;6307888;22;20388;-81
2021/12/16 10:11:22;;;;;;;132.60;28.98;;;;;;;;;;6308531;22;20014;-81
2021/12/16 10:20:35;;;;;;;144.90;29.35;;;8.00;99.90;;;;;;6307383;22;20065;-80
2021/12/16 10:23:19;;;;;;;114.38;26.63;;;;;;;;;;6308337;22;20387;-81
2021/12/16 10:26:13;;;;;;;82.78;24.65;;;8.10;99.90;;;;;;6307093;22;20014;-81
2021/12/16 10:28:59;;;;;;;174.13;30.75;;;8.20;99.90;;;;;;6306690;22;20456;-81
2021/12/16 10:31:44;;;;;;;160.38;28.67;;;;;;;;;;6307811;22;20010;-81
2021/12/16 10:34:29;;;;;;;141.13;29.05;;;8.20;99.90;;;;;;6308248;22;20018;-81
2021/12/16 10:37:13;;;;;;;157.07;27.00;;;8.20;99.90;;;;;;6263923;22;20017;-81
2021/12/16 10:40:32;;;;;;;172.60;30.55;;;8.20;99.90;;;;;;6306613;22;20018;-80
2021/12/16 10:43:17;;;;;;;204.52;28.38;;;;;;;;;;6306385;22;20330;-81
2021/12/16 10:46:13;;;;;;;192.95;27.50;;;8.30;99.90;;;;;;6307035;22;20057;-81
2021/12/16 10:49:03;;;;;;;333.15;36.10;;;8.30;99.90;;;;;;6306210;22;20018;-80
2021/12/16 10:51:51;;;;;;;82.30;19.67;;;8.20;99.90;;;;;;6307559;22;20053;-81
2021/12/16 10:54:41;;;;;;;123.68;21.83;;;8.20;99.90;;;;;;6306773;22;20010;-81
2021/12/16 10:57:30;;;;;;;144.02;22.25;;;8.30;99.90;;;;;;6308151;22;20017;-81
2021/12/16 11:00:18;;;;;;;147.48;25.38;;;8.30;99.90;;;;;;6306810;22;20010;-81
2021/12/16 11:03:02;;;;;;;151.52;26.40;;;8.30;99.90;;;;;;6308130;22;20010;-81
2021/12/16 11:05:47;;;;;;;163.95;26.55;;;8.30;99.90;;;;;;6307399;22;20102;-79
2021/12/16 11:08:31;;;;;;;250.88;31.33;;;;;;;;;;6306643;22;20484;-80
2021/12/16 11:11:16;;;;;;;162.25;26.38;;;8.30;99.90;;;;;;6308096;22;20017;-81
2021/12/16 11:14:04;;;;;;;179.60;27.63;;;8.30;99.90;;;;;;6306084;22;20018;-80
2021/12/16 11:16:58;;;;;;;131.85;23.08;;;8.30;99.90;;;;;;6305839;22;20033;-81
2021/12/16 11:19:51;;;;;;;161.68;25.85;;;8.30;99.90;;;;;;6307269;22;20011;-81
2021/12/16 11:22:38;;;;;;;106.85;22.05;;;8.30;99.90;;;;;;6306771;22;20014;-81
2021/12/16 11:25:26;;;;;;;121.47;24.73;;;8.70;99.90;;;;;;6307854;22;20010;-81
2021/12/16 11:28:31;;;;;;;116.18;23.55;;;8.40;99.90;;;;;;6306392;22;20026;-81
2021/12/16 11:31:16;;;;;;;;;;;8.40;99.90;;;;;;6307036;22;20329;-80
2021/12/16 11:34:08;;;;;;;53.13;17.58;;;8.60;99.90;;;;;;6307277;22;19905;-81
2021/12/16 11:36:53;;;;;;;68.20;18.15;;;;;;;;;;6306896;22;20050;-82
2021/12/16 11:39:37;;;;;;;90.43;22.00;;;8.40;99.90;;;;;;6307703;22;20075;-79
2021/12/16 11:42:28;;;;;;;84.03;19.88;;;8.50;99.90;;;;;;6307716;22;20018;-81
2021/12/16 11:45:13;;;;;;;59.33;18.55;;;;;;;;;;6306521;22;20014;-81
2021/12/16 11:47:57;;;;;;;65.20;18.33;;;;;;;;;;6305737;22;20026;-80
2021/12/16 11:50:44;;;;;;;87.00;19.83;;;;;;;;;;6306057;22;20015;-81
2021/12/16 11:53:53;;;;;;;84.63;21.65;;;8.40;99.90;;;;;;6307502;22;20018;-79
2021/12/16 11:57:05;;;;;;;86.22;21.23;;;8.40;99.90;;;;;;6307377;22;20377;-80
2021/12/16 11:59:55;;;;;;;93.55;21.15;;;8.40;99.90;;;;;;6305552;22;20346;-80
2021/12/16 12:02:49;;;;;;;94.72;22.25;;;8.40;99.90;;;;;;6307277;22;20345;-80
2021/12/16 12:05:34;;;;;;;83.07;21.83;;;;;;;;;;6307161;22;20033;-80
2021/12/16 12:08:26;;;;;;;122.57;25.30;;;8.40;99.90;;;;;;6307292;22;20065;-80
2021/12/16 12:11:17;;;;;;;76.55;20.95;;;8.30;99.90;;;;;;6305891;22;20419;-79
2021/12/16 12:14:07;;;;;;;114.78;23.65;;;8.50;99.90;;;;;;6305322;22;20014;-80
2021/12/16 12:16:53;;;;;;;114.68;25.50;;;;;;;;;;6306584;22;20014;-80
2021/12/16 12:19:43;;;;;;;83.05;21.13;;;8.50;99.90;;;;;;6305880;22;20018;-80
2021/12/16 12:22:28;;;;;;;83.25;21.58;;;8.60;99.90;;;;;;6306564;22;20014;-80
2021/12/16 12:25:11;;;;;;;;;;;8.60;99.90;;;;;;6305052;22;20018;-80
2021/12/16 12:27:56;;;;;;;44.85;17.13;;;;;;;;;;6306242;22;19992;-80
2021/12/16 12:30:41;;;;;;;78.40;20.02;;;;;;;;;;6306038;22;20010;-80
2021/12/16 12:33:26;;;;;;;68.68;19.42;;;;;;;;;;6307224;22;20081;-81
2021/12/16 12:36:12;;;;;;;71.35;18.42;;;8.70;99.90;;;;;;6306688;22;20348;-80
2021/12/16 12:38:57;;;;;;;57.47;16.20;;;;;;;;;;6306082;22;20049;-81
2021/12/16 12:41:43;;;;;;;86.18;19.98;;;8.70;99.90;;;;;;6305368;22;20056;-80
2021/12/16 12:44:28;;;;;;;59.15;17.08;;;;;;;;;;6305870;22;20019;-80
2021/12/16 12:47:22;;;;;;;60.22;17.77;;;8.80;99.90;;;;;;6305046;22;20029;-80
2021/12/16 12:50:08;;;;;;;;;;;8.80;99.90;;;;;;6306956;22;20014;-80
2021/12/16 12:52:54;;;;;;;64.50;17.13;;;8.80;99.90;;;;;;6305186;22;19926;-81
2021/12/16 12:55:39;;;;;;;70.15;16.48;;;;;;;;;;6284211;22;20398;-80
2021/12/16 12:58:27;;;;;;;62.08;15.98;;;8.80;99.90;;;;;;6306912;22;20030;-80
2021/12/16 13:01:12;;;;;;;56.58;15.63;;;;;;;;;;6306377;22;20014;-80
2021/12/16 13:04:22;;;;;;;58.78;15.88;;;8.80;99.90;;;;;;6306224;22;20053;-79
2021/12/16 13:07:09;;;;;;;68.35;15.95;;;8.80;99.90;;;;;;6304457;22;20018;-81
2021/12/16 13:09:55;;;;;;;99.90;17.73;;;8.80;99.90;;;;;;6305066;22;20441;-82
2021/12/16 13:13:14;;;;;;;56.58;14.52;;;8.90;99.90;;;;;;6305589;22;20455;-81
2021/12/16 13:28:55;;;;;;;181.63;23.90;;;;;;;;;;6306429;22;20073;-79
2021/12/16 13:31:52;;;;;;;148.98;23.08;;;8.80;99.90;;;;;;6305462;22;20116;-80
2021/12/16 13:37:55;;;;;;;29.35;10.18;;;8.90;99.90;;;;;;6274157;22;20452;-79
2021/12/16 13:40:42;;;;;;;26.08;9.45;;;8.90;99.90;;;;;;6306666;22;20060;-80
2021/12/16 13:43:29;;;;;;;22.13;8.02;;;8.80;99.90;;;;;;6306930;22;20010;-79
2021/12/16 14:01:57;;;;;;;47.25;12.68;;;8.80;99.90;;;;;;6306435;22;20045;-81
2021/12/16 14:07:59;;;;;;;54.17;14.50;;;9.00;99.90;;;;;;6305547;22;20459;-80
2021/12/16 14:10:56;;;;;;;62.75;15.05;;;8.80;99.90;;;;;;6306013;22;20448;-80
2021/12/16 14:35:36;;;;;;;66.07;16.45;;;8.70;99.90;;;;;;6307942;22;20349;-80
2021/12/16 14:38:06;;;;;;;51.65;14.23;;;;;;;;;;6303583;22;20065;-79
2021/12/16 14:47:41;;;;;;;74.70;15.88;;;8.60;99.90;;;;;;6243109;23;20078;-79
2021/12/16 14:50:37;;;;;;;44.92;13.82;;;8.20;99.90;;;;;;6307438;22;20053;-80
2021/12/16 14:53:45;;;;;;;57.53;15.25;;;8.50;99.90;;;;;;6307213;22;20010;-80
2021/12/16 14:56:36;;;;;;;64.68;16.20;;;8.60;99.90;;;;;;6307560;22;20016;-80
2021/12/16 14:59:21;;;;;;;56.83;15.48;;;;;;;;;;6307480;22;20057;-80
2021/12/16 15:02:08;;;;;;;61.20;16.73;;;;;;;;;;6306507;22;20037;-80
2021/12/16 15:04:53;;;;;;;64.57;17.60;;;;;;;;;;6306371;22;20046;-80
2021/12/16 15:07:37;;;;;;;88.97;18.80;;;;;;;;;;6307875;22;20104;-80
2021/12/16 15:10:23;;;;;;;75.57;19.23;;;;;;;;;;6305821;22;20019;-80
2021/12/16 15:13:15;;;;;;;55.40;15.75;;;;;;;;;;6306051;22;20096;-80
2021/12/16 15:37:54;;;;;;;46.25;14.70;;;8.60;99.90;;;;;;6307221;22;20452;-80
2021/12/16 15:43:45;;;;;;;54.47;15.02;;;;;;;;;;6306985;22;20045;-80
2021/12/16 15:46:29;;;;;;;77.38;16.92;;;;;;;;;;6306682;22;20014;-80
2021/12/16 15:49:14;;;;;;;75.90;18.92;;;;;;;;;;6283904;22;20088;-80
2021/12/16 15:52:00;;;;;;;92.43;21.20;;;8.60;99.90;;;;;;6306036;22;20105;-80
2021/12/16 15:54:51;;;;;;;119.78;21.75;;;8.60;99.90;;;;;;6306076;22;20057;-80
2021/12/16 15:57:35;;;;;;;119.68;21.88;;;8.50;99.90;;;;;;6306738;22;20018;-81
2021/12/16 16:00:22;;;;;;;179.18;26.20;;;8.50;99.90;;;;;;6305485;22;20095;-80
2021/12/16 16:03:08;;;;;;;145.38;24.90;;;8.80;99.90;;;;;;6307240;22;20017;-80
2021/12/16 16:05:55;;;;;;;68.65;19.27;;;9.30;99.90;;;;;;6307115;22;20022;-80
2021/12/16 16:08:46;;;;;;;125.30;23.33;;;8.60;99.90;;;;;;6306857;22;20058;-81
2021/12/16 16:11:34;;;;;;;135.55;23.83;;;8.60;99.90;;;;;;6306553;22;20534;-81
2021/12/16 16:14:21;;;;;;;113.75;23.98;;;8.60;99.90;;;;;;6304495;22;20019;-81
2021/12/16 16:17:13;;;;;;;110.32;23.98;;;8.60;99.90;;;;;;6306724;22;20333;-81
2021/12/16 16:19:58;;;;;;;96.10;23.23;;;8.90;99.90;;;;;;6307053;22;20424;-82
2021/12/16 16:22:46;;;;;;;64.88;20.85;;;8.60;99.90;;;;;;6307062;22;20018;-81
2021/12/16 16:25:30;;;;;;;61.53;19.92;;;8.60;99.90;;;;;;6306594;22;20018;-81
2021/12/16 16:28:15;;;;;;;93.63;23.27;;;8.60;99.90;;;;;;6306776;22;20049;-81
2021/12/16 16:31:01;;;;;;;103.45;23.42;;;8.60;99.90;;;;;;6306967;22;20034;-80
2021/12/16 16:33:47;;;;;;;69.63;21.67;;;8.60;99.90;;;;;;6307148;22;20487;-81
2021/12/16 16:36:31;;;;;;;108.93;24.02;;;9.20;99.90;;;;;;6283484;22;20076;-81
2021/12/16 16:39:19;;;;;;;107.30;25.98;;;8.60;99.90;;;;;;6307034;22;20019;-81
2021/12/16 16:42:07;;;;;;;78.35;21.52;;;8.60;99.90;;;;;;6305286;22;20452;-81
2021/12/16 16:44:54;;;;;;;148.98;28.70;;;8.60;99.90;;;;;;6306727;22;20021;-81
2021/12/16 16:47:51;;;;;;;128.85;25.48;;;8.70;99.90;;;;;;6306164;22;20018;-81
2021/12/16 16:50:38;;;;;;;124.43;25.92;;;;;;;;;;6306082;22;20014;-81
2021/12/16 16:53:27;;;;;;;138.63;27.02;;;8.60;99.90;;;;;;6306128;22;20018;-81
2021/12/16 16:56:13;;;;;;;91.68;24.50;;;10.40;99.90;;;;;;6305004;22;20336;-80
2021/12/16 16:59:05;;;;;;;108.57;24.45;;;8.70;99.90;;;;;;6306534;22;20088;-82
2021/12/16 17:01:49;;;;;;;143.55;28.92;;;8.70;99.90;;;;;;6305383;22;20487;-81
2021/12/16 17:04:34;;;;;;;203.40;32.65;;;9.50;99.90;;;;;;6283323;22;20046;-81
2021/12/16 17:07:18;;;;;;;;;;;8.70;99.90;;;;;;6308017;22;20026;-80
2021/12/16 17:10:04;;;;;;;78.43;23.40;;;8.70;99.90;;;;;;6306779;22;19956;-80
2021/12/16 17:12:48;;;;;;;151.52;28.20;;;8.80;99.90;;;;;;6306786;22;20018;-80
2021/12/16 17:15:44;;;;;;;140.20;26.52;;;8.70;99.90;;;;;;6306320;22;20452;-81
2021/12/16 17:18:43;;;;;;;103.22;23.63;;;9.00;99.90;;;;;;6305973;22;20354;-80
2021/12/16 17:21:33;;;;;;;84.55;22.40;;;8.70;99.90;;;;;;6306006;22;20082;-81
2021/12/16 17:24:25;;;;;;;195.40;30.75;;;8.70;99.90;;;;;;6305335;22;20081;-80
2021/12/16 17:27:11;;;;;;;126.10;26.05;;;8.70;99.90;;;;;;6306543;22;20030;-80
2021/12/16 17:29:59;;;;;;;63.65;22.02;;;8.70;99.90;;;;;;6306398;22;20022;-80
2021/12/16 17:32:46;;;;;;;230.95;31.67;;;8.70;99.90;;;;;;6304623;22;20441;-80
2021/12/16 17:35:33;;;;;;;131.45;25.55;;;8.70;99.90;;;;;;6305999;22;20018;-81
2021/12/16 17:38:27;;;;;;;111.18;25.13;;;8.70;99.90;;;;;;6305232;22;20503;-80
2021/12/16 17:41:12;;;;;;;68.82;21.33;;;8.80;99.90;;;;;;6306552;22;20010;-80
2021/12/16 17:43:56;;;;;;;61.78;21.02;;;8.70;99.90;;;;;;6305279;22;20030;-80
2021/12/16 17:46:43;;;;;;;82.40;23.10;;;8.70;99.90;;;;;;6304612;22;20014;-81
2021/12/16 17:49:28;;;;;;;119.93;23.60;;;8.80;99.90;;;;;;6306231;22;20022;-81
2021/12/16 17:52:29;;;;;;;87.07;22.73;;;8.80;99.90;;;;;;6306762;22;20116;-80
2021/12/16 17:55:19;;;;;;;63.83;21.08;;;8.80;99.90;;;;;;6308589;22;20086;-80
2021/12/16 17:58:09;;;;;;;246.57;33.40;;;8.80;99.90;;;;;;6308477;22;20387;-82
2021/12/16 18:00:57;;;;;;;67.03;21.52;;;8.80;99.90;;;;;;6308097;22;20050;-81
2021/12/16 18:03:52;;;;;;;223.15;31.67;;;8.80;99.90;;;;;;6305844;22;20026;-81
2021/12/16 18:06:50;;;;;;;147.50;27.25;;;8.80;99.90;;;;;;6305803;22;20018;-81
2021/12/16 18:09:41;;;;;;;89.40;24.27;;;8.80;99.90;;;;;;6307657;22;20089;-81
2021/12/16 18:12:30;;;;;;;136.07;28.20;;;8.80;99.90;;;;;;6306902;22;20012;-81
2021/12/16 18:15:23;;;;;;;109.75;27.60;;;8.80;99.90;;;;;;6307748;22;20060;-81
2021/12/16 18:18:11;;;;;;;95.13;26.30;;;8.80;99.90;;;;;;6308036;22;20018;-81
2021/12/16 18:21:00;;;;;;;99.75;27.20;;;8.80;99.90;;;;;;6308120;22;20437;-81
2021/12/16 18:23:46;;;;;;;114.15;28.80;;;8.80;99.90;;;;;;6306415;22;20014;-80
2021/12/16 18:26:34;;;;;;;86.25;25.63;;;8.80;99.90;;;;;;6308053;22;20014;-80
2021/12/16 18:29:18;;;;;;;221.18;34.33;;;9.70;99.90;;;;;;6307990;22;20026;-80
2021/12/16 18:32:03;;;;;;;244.85;37.00;;;8.90;99.90;;;;;;6307879;22;20037;-81
2021/12/16 18:34:51;;;;;;;231.73;35.90;;;9.30;99.90;;;;;;6307477;22;20018;-80
2021/12/16 18:37:42;;;;;;;294.40;38.88;;;8.80;99.90;;;;;;6307525;22;20396;-82
2021/12/16 18:40:27;;;;;;;296.08;38.47;;;8.80;99.90;;;;;;6307970;22;20064;-80